Terminal Aerodrome Forecast
Issued by NWS

Home | Current Version | Previous Version | Text Only | Print | Product List | Glossary On
Versions: 1 2 3 4 5 6 7 8 9 10 11 12 13 14 15 16 17 18 19 20 21 22
000
FTUS46 KSEW 191100
TAFOLM
TAF
KOLM 191120Z 1912/2012 VRB03KT P6SM SCT100 OVC200
     FM191500 17006KT P6SM SCT050 BKN070
     FM191700 18012KT P6SM -RA BKN045 OVC070
     FM192000 22014G22KT P6SM -SHRA BKN040 OVC060
     FM200500 20010KT P6SM VCSH BKN040 BKN060=

USA.gov is the U.S. government's official web portal to all federal, state and local government web resources and services.